createdAt,value
2018-05-25T00:00:39.465Z,14.10
2018-05-25T00:03:07.003Z,14.10
2018-05-25T00:05:34.544Z,14.10
2018-05-25T00:08:02.055Z,14.10
2018-05-25T00:10:29.553Z,14.00
2018-05-25T00:18:44.385Z,14.00
2018-05-25T00:21:11.878Z,14.00
2018-05-25T00:23:39.375Z,14.00
2018-05-25T00:26:06.877Z,13.90
2018-05-25T00:28:34.365Z,13.90
2018-05-25T00:31:01.865Z,13.90
2018-05-25T00:33:29.369Z,13.90
2018-05-25T00:35:56.869Z,13.90
2018-05-25T00:38:24.360Z,13.80
2018-05-25T00:40:52.625Z,13.70
2018-05-25T00:43:20.126Z,13.70
2018-05-25T00:45:47.619Z,13.80
2018-05-25T00:48:15.116Z,13.90
2018-05-25T00:50:43.392Z,13.80
2018-05-25T00:53:11.668Z,13.90
2018-05-25T00:55:40.687Z,13.80
2018-05-25T00:58:08.186Z,13.80
2018-05-25T01:00:35.689Z,13.70
2018-05-25T01:03:03.952Z,13.70
2018-05-25T01:05:32.229Z,13.60
2018-05-25T01:08:00.493Z,13.60
2018-05-25T01:10:27.997Z,13.50
2018-05-25T01:12:55.496Z,13.50
2018-05-25T01:24:12.918Z,13.40
2018-05-25T01:26:40.418Z,13.50
2018-05-25T01:29:07.918Z,13.50
2018-05-25T01:31:35.422Z,13.50
2018-05-25T01:34:02.923Z,13.40
2018-05-25T01:36:30.426Z,13.40
2018-05-25T01:38:57.925Z,13.30
2018-05-25T01:41:25.425Z,13.20
2018-05-25T01:43:53.693Z,13.10
2018-05-25T01:46:21.191Z,13.10
2018-05-25T01:48:48.697Z,13.20
2018-05-25T01:51:16.194Z,13.20
2018-05-25T01:53:43.688Z,13.20
2018-05-25T01:56:11.201Z,13.10
2018-05-25T01:58:39.460Z,13.10
2018-05-25T02:01:06.968Z,13.10
2018-05-25T02:03:34.469Z,13.10
2018-05-25T02:06:01.983Z,13.10
2018-05-25T02:08:29.482Z,13.20
2018-05-25T02:10:56.986Z,13.20
2018-05-25T02:13:43.803Z,13.20
2018-05-25T04:17:54.622Z,13.90
2018-05-25T04:20:28.545Z,14.00
2018-05-25T04:22:56.083Z,14.00
2018-05-25T04:25:23.583Z,14.00
2018-05-25T04:27:51.105Z,14.10
2018-05-25T04:30:18.609Z,14.10
2018-05-25T04:32:46.110Z,14.20
2018-05-25T04:35:13.612Z,14.30
2018-05-25T04:37:41.117Z,14.30
2018-05-25T04:40:09.386Z,14.50
2018-05-25T04:42:37.666Z,14.60
2018-05-25T04:45:05.940Z,14.70
2018-05-25T04:47:34.218Z,14.70
2018-05-25T04:50:02.494Z,14.80
2018-05-25T04:52:30.821Z,14.80
2018-05-25T04:54:59.059Z,14.80
2018-05-25T04:57:27.329Z,14.90
2018-05-25T04:59:55.599Z,15.00
2018-05-25T05:02:23.870Z,15.00
2018-05-25T05:04:51.439Z,15.00
2018-05-25T05:07:18.905Z,15.10
2018-05-25T05:09:46.409Z,15.20
2018-05-25T05:12:13.915Z,15.30
2018-05-25T05:14:42.214Z,15.50
2018-05-25T05:17:10.473Z,15.60
2018-05-25T05:19:37.978Z,15.60
2018-05-25T05:22:05.479Z,15.60
2018-05-25T05:24:32.987Z,15.70
2018-05-25T05:27:00.515Z,15.70
2018-05-25T05:29:28.018Z,15.80
2018-05-25T05:31:55.530Z,15.90
2018-05-25T05:34:23.798Z,16.10
2018-05-25T05:36:52.067Z,16.20
2018-05-25T05:39:19.571Z,16.20
2018-05-25T05:41:47.073Z,16.30
2018-05-25T05:44:14.581Z,16.40
2018-05-25T05:46:42.084Z,16.50
2018-05-25T05:49:09.595Z,16.50
2018-05-25T05:51:37.098Z,16.60
2018-05-25T05:54:04.597Z,16.70
2018-05-25T05:56:32.110Z,16.70
2018-05-25T05:58:59.613Z,16.80
2018-05-25T06:01:27.892Z,17.00
2018-05-25T06:03:56.160Z,17.10
2018-05-25T06:06:23.678Z,17.10
2018-05-25T06:08:51.178Z,17.20
2018-05-25T06:11:18.695Z,17.30
2018-05-25T06:13:46.208Z,17.30
2018-05-25T06:19:21.031Z,17.40
2018-05-25T07:22:34.289Z,19.70
2018-05-25T07:25:01.785Z,19.70
2018-05-25T07:27:29.299Z,19.70
2018-05-25T07:29:56.809Z,19.80
2018-05-25T07:32:24.322Z,19.80
2018-05-25T07:34:51.829Z,19.90
2018-05-25T07:37:19.333Z,19.90
2018-05-25T07:39:46.845Z,19.90
2018-05-25T07:42:14.355Z,20.10
2018-05-25T07:44:41.862Z,20.20
2018-05-25T07:47:09.368Z,20.30
2018-05-25T07:49:36.871Z,20.30
2018-05-25T07:52:04.376Z,20.40
2018-05-25T07:54:31.886Z,20.50
2018-05-25T07:56:59.393Z,20.60
2018-05-25T07:59:26.899Z,20.70
2018-05-25T08:01:54.410Z,20.70
2018-05-25T08:04:21.914Z,20.70
2018-05-25T08:06:50.183Z,20.90
2018-05-25T08:09:18.453Z,21.00
2018-05-25T08:11:46.725Z,21.10
2018-05-25T08:14:15.002Z,21.20
2018-05-25T08:19:46.130Z,21.40
2018-05-25T08:25:06.934Z,21.40
2018-05-25T08:27:34.438Z,21.50
2018-05-25T08:30:01.939Z,21.40
2018-05-25T08:32:29.453Z,21.40
2018-05-25T08:34:56.958Z,21.50
2018-05-25T08:37:24.469Z,21.60
2018-05-25T08:39:51.978Z,21.70
2018-05-25T08:42:19.487Z,21.80
2018-05-25T08:44:46.989Z,21.80
2018-05-25T08:47:14.490Z,22.00
2018-05-25T08:49:41.999Z,22.00
2018-05-25T08:52:09.501Z,22.00
2018-05-25T08:54:37.006Z,21.90
2018-05-25T08:57:05.272Z,22.00
2018-05-25T08:59:33.552Z,22.00
2018-05-25T09:02:01.842Z,22.10
2018-05-25T09:04:30.113Z,22.20
2018-05-25T09:06:58.382Z,22.20
2018-05-25T09:09:26.662Z,22.20
2018-05-25T09:11:54.935Z,22.30
2018-05-25T09:23:02.591Z,22.50
2018-05-25T09:25:30.095Z,22.60
2018-05-25T09:27:57.600Z,22.80
2018-05-25T09:30:25.112Z,22.70
2018-05-25T09:32:52.631Z,22.60
2018-05-25T09:35:20.141Z,22.60
2018-05-25T09:37:47.646Z,22.60
2018-05-25T09:40:15.922Z,23.00
2018-05-25T09:42:44.196Z,23.10
2018-05-25T09:45:12.477Z,22.90
2018-05-25T09:47:40.755Z,23.00
2018-05-25T09:50:09.022Z,23.10
2018-05-25T09:52:36.521Z,23.10
2018-05-25T09:55:04.043Z,23.00
2018-05-25T09:57:31.547Z,23.10
2018-05-25T09:59:59.070Z,23.20
2018-05-25T10:02:27.345Z,23.10
2018-05-25T10:04:55.622Z,23.20
2018-05-25T10:07:23.889Z,23.00
2018-05-25T10:09:51.401Z,23.00
2018-05-25T10:12:18.913Z,23.20
2018-05-25T10:26:21.814Z,26.10
2018-05-25T10:28:49.347Z,26.10
2018-05-25T10:31:16.842Z,26.50
2018-05-25T10:33:44.356Z,26.80
2018-05-25T10:36:12.638Z,26.90
2018-05-25T10:38:40.147Z,26.90
2018-05-25T10:41:07.723Z,27.30
2018-05-25T10:43:35.939Z,27.10
2018-05-25T10:46:04.212Z,27.50
2018-05-25T10:48:32.485Z,27.30
2018-05-25T10:51:00.767Z,27.80
2018-05-25T10:53:29.903Z,27.70
2018-05-25T10:55:57.443Z,27.70
2018-05-25T10:58:24.934Z,28.20
2018-05-25T11:00:52.437Z,27.60
2018-05-25T11:03:20.701Z,28.30
2018-05-25T11:05:48.201Z,28.30
2018-05-25T11:08:15.709Z,28.30
2018-05-25T11:10:43.209Z,28.50
2018-05-25T11:13:10.714Z,28.50
2018-05-25T11:15:38.210Z,29.40
2018-05-25T11:34:04.542Z,29.30
2018-05-25T11:36:32.044Z,29.30
2018-05-25T11:38:59.582Z,29.20
2018-05-25T11:41:27.087Z,29.20
2018-05-25T11:43:54.601Z,29.00
2018-05-25T11:46:22.893Z,28.70
2018-05-25T11:48:50.399Z,28.70
2018-05-25T11:51:17.899Z,29.00
2018-05-25T11:53:45.401Z,28.80
2018-05-25T11:56:12.916Z,28.80
2018-05-25T11:58:41.178Z,28.80
2018-05-25T12:01:09.446Z,28.80
2018-05-25T12:03:36.946Z,28.80
2018-05-25T12:06:04.463Z,29.40
2018-05-25T12:08:31.981Z,29.20
2018-05-25T12:10:59.501Z,29.10
2018-05-25T12:22:08.530Z,28.00
2018-05-25T12:24:36.037Z,28.60
2018-05-25T12:27:03.543Z,28.00
2018-05-25T12:29:31.041Z,28.60
2018-05-25T12:31:58.542Z,27.60
2018-05-25T12:34:26.059Z,27.20
2018-05-25T12:36:53.558Z,27.20
2018-05-25T12:39:21.058Z,27.10
2018-05-25T12:41:48.580Z,28.10
2018-05-25T12:44:16.085Z,28.60
2018-05-25T12:46:43.578Z,28.90
2018-05-25T12:49:11.841Z,29.90
2018-05-25T12:51:39.341Z,29.90
2018-05-25T12:54:06.845Z,29.60
2018-05-25T12:56:34.347Z,29.40
2018-05-25T12:59:01.850Z,28.90
2018-05-25T13:01:29.361Z,29.60
2018-05-25T13:03:56.858Z,29.80
2018-05-25T13:06:24.362Z,29.10
2018-05-25T13:08:52.629Z,28.90
2018-05-25T13:11:20.130Z,28.80
2018-05-25T14:14:29.404Z,28.40
2018-05-25T14:16:56.937Z,29.10
2018-05-25T15:26:04.450Z,26.90
2018-05-25T15:28:31.950Z,27.30
2018-05-25T15:30:59.468Z,26.80
2018-05-25T15:33:26.970Z,26.90
2018-05-25T15:35:54.485Z,26.80
2018-05-25T15:38:21.990Z,27.10
2018-05-25T15:40:49.497Z,26.80
2018-05-25T15:43:16.995Z,26.90
2018-05-25T15:45:44.503Z,27.00
2018-05-25T15:48:12.006Z,27.10
2018-05-25T15:50:40.277Z,26.90
2018-05-25T15:53:08.550Z,26.70
2018-05-25T15:55:36.819Z,26.50
2018-05-25T15:58:04.327Z,26.50
2018-05-25T16:00:31.827Z,26.80
2018-05-25T16:02:59.321Z,26.60
2018-05-25T16:05:26.821Z,26.60
2018-05-25T16:07:54.317Z,26.00
2018-05-25T16:10:21.816Z,26.20
2018-05-25T16:13:00.292Z,25.80
2018-05-25T16:15:27.822Z,25.70
2018-05-25T16:20:55.197Z,25.80
2018-05-25T16:23:22.694Z,25.80
2018-05-25T16:25:50.958Z,26.10
2018-05-25T16:28:18.459Z,26.00
2018-05-25T16:30:45.965Z,25.50
2018-05-25T16:33:13.458Z,25.40
2018-05-25T16:35:40.954Z,25.80
2018-05-25T16:38:08.449Z,25.90
2018-05-25T16:40:35.946Z,25.70
2018-05-25T16:43:03.454Z,25.30
2018-05-25T16:45:30.964Z,25.40
2018-05-25T16:47:58.475Z,25.30
2018-05-25T16:50:25.976Z,25.30
2018-05-25T16:52:53.516Z,25.10
2018-05-25T16:55:21.007Z,25.10
2018-05-25T16:57:48.513Z,25.20
2018-05-25T17:00:16.017Z,25.30
2018-05-25T17:02:43.521Z,25.20
2018-05-25T17:05:11.017Z,24.60
2018-05-25T17:07:38.518Z,24.20
2018-05-25T17:10:06.021Z,24.20
2018-05-25T17:12:33.567Z,24.50
2018-05-25T17:20:57.869Z,24.00
2018-05-25T17:26:19.142Z,23.60
2018-05-25T17:28:46.644Z,23.60
2018-05-25T17:31:14.148Z,23.10
2018-05-25T17:33:41.645Z,23.00
2018-05-25T17:36:09.199Z,22.90
2018-05-25T17:38:36.677Z,22.80
2018-05-25T17:41:04.181Z,22.80
2018-05-25T17:43:31.683Z,22.70
2018-05-25T17:45:59.189Z,22.60
2018-05-25T17:48:26.689Z,22.70
2018-05-25T17:50:54.959Z,22.10
2018-05-25T17:53:23.235Z,21.70
2018-05-25T17:55:51.513Z,21.50
2018-05-25T17:58:19.783Z,21.30
2018-05-25T18:00:48.045Z,21.10
2018-05-25T18:03:15.565Z,21.10
2018-05-25T18:05:43.081Z,21.10
2018-05-25T18:08:10.596Z,21.00
2018-05-25T18:10:38.097Z,20.60
2018-05-25T19:16:45.202Z,16.70
2018-05-25T19:19:12.719Z,16.70
2018-05-25T19:21:40.220Z,16.60
2018-05-25T19:24:07.725Z,16.50
2018-05-25T19:26:35.217Z,16.40
2018-05-25T19:29:02.725Z,16.30
2018-05-25T19:31:30.994Z,16.10
2018-05-25T19:33:59.259Z,16.10
2018-05-25T19:36:26.776Z,16.00
2018-05-25T19:38:54.290Z,16.00
2018-05-25T19:41:21.794Z,15.90
2018-05-25T19:43:49.305Z,15.90
2018-05-25T19:46:17.564Z,15.80
2018-05-25T19:48:45.076Z,15.70
2018-05-25T19:51:12.581Z,15.70
2018-05-25T19:53:40.081Z,15.60
2018-05-25T19:56:07.594Z,15.50
2018-05-25T19:58:35.093Z,15.40
2018-05-25T20:01:03.366Z,15.30
2018-05-25T20:03:31.645Z,15.20
2018-05-25T20:05:59.914Z,15.20
2018-05-25T20:08:28.182Z,15.20
2018-05-25T20:10:55.769Z,15.10
2018-05-25T20:13:23.273Z,15.00
2018-05-25T20:15:50.770Z,15.00
2018-05-25T20:21:22.698Z,14.80
2018-05-25T20:23:50.297Z,14.80
2018-05-25T20:26:17.803Z,14.80
2018-05-25T20:28:46.203Z,14.70
2018-05-25T20:31:13.710Z,14.60
2018-05-25T20:33:41.993Z,14.50
2018-05-25T20:36:10.264Z,14.40
2018-05-25T20:38:38.530Z,14.30
2018-05-25T20:41:06.813Z,14.30
2018-05-25T20:43:35.082Z,14.20
2018-05-25T20:46:03.365Z,14.20
2018-05-25T20:48:31.642Z,14.10
2018-05-25T20:50:59.911Z,14.00
2018-05-25T20:53:27.422Z,14.00
2018-05-25T20:55:54.922Z,13.90
2018-05-25T20:58:22.429Z,13.90
2018-05-25T21:00:49.937Z,13.80
2018-05-25T21:03:17.437Z,13.80
2018-05-25T21:05:44.945Z,13.70
2018-05-25T21:08:12.447Z,13.70
2018-05-25T21:10:40.723Z,13.60
2018-05-25T21:13:08.992Z,13.50
2018-05-25T21:15:36.498Z,13.50
2018-05-25T22:15:59.977Z,13.00
2018-05-25T22:18:27.480Z,13.10
2018-05-25T22:20:55.755Z,13.10
2018-05-25T22:23:24.026Z,13.20
2018-05-25T22:25:52.306Z,13.20
2018-05-25T22:28:20.570Z,13.10
2018-05-25T22:30:48.070Z,13.10
2018-05-25T22:33:15.578Z,12.90
2018-05-25T22:35:43.080Z,12.70
2018-05-25T22:38:10.586Z,12.50
2018-05-25T22:40:38.090Z,12.40
2018-05-25T22:43:18.062Z,12.30
2018-05-25T22:45:57.413Z,12.30
2018-05-25T22:48:36.646Z,12.50
2018-05-25T22:51:15.982Z,12.60
2018-05-25T22:53:48.778Z,12.80
2018-05-25T22:56:16.284Z,12.70
2018-05-25T22:58:44.563Z,12.70
2018-05-25T23:01:12.841Z,12.60
2018-05-25T23:03:40.366Z,12.60
2018-05-25T23:06:07.871Z,12.60
2018-05-25T23:08:35.377Z,12.60
2018-05-25T23:11:02.879Z,12.60
2018-05-25T23:16:24.324Z,12.70
2018-05-25T23:18:51.822Z,12.70
2018-05-25T23:21:19.334Z,12.70
2018-05-25T23:23:47.608Z,12.40
2018-05-25T23:26:15.125Z,12.40
2018-05-25T23:28:42.630Z,12.30
2018-05-25T23:31:10.133Z,12.40
2018-05-25T23:33:37.638Z,12.30
2018-05-25T23:36:05.144Z,12.20
2018-05-25T23:38:32.654Z,12.30
2018-05-25T23:41:00.922Z,12.30
2018-05-25T23:43:28.426Z,12.20
2018-05-25T23:45:55.932Z,12.10
2018-05-25T23:48:23.438Z,12.10
2018-05-25T23:50:50.947Z,12.10
2018-05-25T23:53:18.467Z,12.00
2018-05-25T23:55:45.966Z,12.10
2018-05-25T23:58:13.460Z,12.10
